Time;durP1;ratioP1;P1;durP2;ratioP2;P2;SDS_P1;SDS_P2;PMS_P1;PMS_P2;Temp;Humidity;BMP_temperature;BMP_pressure;BME280_temperature;BME280_humidity;BME280_pressure;Samples;Min_cycle;Max_cycle;Signal;HPM_P1;HPM_P2
2022/08/11 00:09:38;;;;;;;1.50;1.40;;;;;;;18.67;96.29;102121.72;21040964;28;20060;-80
2022/08/11 00:19:44;;;;;;;1.60;1.50;;;;;;;18.83;96.38;102153.84;21044460;28;20066;-80
2022/08/11 00:30:10;;;;;;;1.53;1.43;;;;;;;18.67;96.20;102130.72;21044041;28;20127;-80
2022/08/11 00:40:19;;;;;;;1.75;1.48;;;;;;;18.82;96.29;102152.13;21041682;28;20093;-80
2022/08/11 00:50:47;;;;;;;1.50;1.40;;;;;;;18.83;96.26;102164.66;21055093;28;20167;-80
2022/08/11 01:01:05;;;;;;;1.52;1.42;;;;;;;18.82;96.01;102162.94;21056496;28;20043;-80
2022/08/11 01:11:28;;;;;;;1.60;1.50;;;;;;;18.82;96.13;102165.63;21053626;28;20044;-80
2022/08/11 01:21:59;;;;;;;1.52;1.42;;;;;;;18.82;95.82;102166.50;21053406;28;20516;-80
2022/08/11 01:32:33;;;;;;;2.03;1.45;;;;;;;18.74;95.78;102151.84;21051000;28;20055;-80
2022/08/11 01:53:15;;;;;;;1.52;1.40;;;;;;;18.80;95.93;102154.97;21050667;28;20500;-80
2022/08/11 02:03:36;;;;;;;1.40;1.30;;;;;;;18.79;95.93;102147.84;21048774;28;20044;-80
2022/08/11 02:14:10;;;;;;;1.73;1.63;;;;;;;18.79;95.74;102150.53;21005108;28;20070;-82
2022/08/11 02:24:23;;;;;;;2.55;1.55;;;;;;;18.68;96.08;102118.06;20916782;28;20068;-80
2022/08/11 02:34:38;;;;;;;2.97;1.52;;;;;;;18.84;96.37;102134.88;20900045;28;20558;-78
2022/08/11 02:44:48;;;;;;;1.87;1.47;;;;;;;18.87;96.16;102139.16;20926583;28;20067;-77
2022/08/11 02:54:49;;;;;;;3.17;1.38;;;;;;;18.88;96.12;102134.66;20950739;28;20398;-78
2022/08/11 03:05:09;;;;;;;1.30;1.20;;;;;;;18.88;96.15;102130.09;20961838;28;20048;-78
2022/08/11 03:25:51;;;;;;;1.35;1.20;;;;;;;18.89;95.92;102125.56;20959448;28;20063;-77
2022/08/11 03:36:18;;;;;;;1.73;1.52;;;;;;;18.89;96.22;102118.31;20980754;28;20048;-77
2022/08/11 03:46:41;;;;;;;2.90;1.52;;;;;;;18.89;95.94;102120.19;21004909;28;20518;-77
2022/08/11 03:57:07;;;;;;;1.75;1.60;;;;;;;18.88;96.36;102113.91;21025950;28;20122;-77
2022/08/11 04:07:18;;;;;;;1.85;1.30;;;;;;;18.89;96.09;102125.56;21042625;28;20052;-77
2022/08/11 04:17:52;;;;;;;2.28;1.30;;;;;;;18.88;96.29;102119.31;21042186;28;20067;-77
2022/08/11 04:28:22;;;;;;;1.83;1.20;;;;;;;18.87;96.01;102112.19;21041693;28;20092;-77
2022/08/11 04:38:57;;;;;;;2.08;1.20;;;;;;;18.90;96.23;102116.50;21016226;28;20052;-77
2022/08/11 05:10:41;;;;;;;1.75;1.40;;;;;;;18.88;95.46;102119.31;20977894;28;20052;-77
2022/08/11 06:02:17;;;;;;;1.58;1.30;;;;;;;18.89;97.10;102123.72;20909324;28;20040;-77
2022/08/11 06:12:24;;;;;;;1.88;1.23;;;;;;;18.87;97.57;102117.56;20918147;28;20485;-77
2022/08/11 06:22:26;;;;;;;1.83;1.10;;;;;;;18.90;97.91;102116.50;20920925;28;20124;-77
2022/08/11 06:32:31;;;;;;;1.88;1.50;;;;;;;18.88;97.88;102111.22;20914560;28;20513;-78
2022/08/11 06:42:43;;;;;;;1.33;1.23;;;;;;;18.87;97.72;102119.44;20916382;28;20080;-78
2022/08/11 06:52:46;;;;;;;1.23;1.10;;;;;;;18.84;97.57;102112.41;20930700;28;20044;-78
2022/08/11 07:02:52;;;;;;;1.50;1.20;;;;;;;18.83;97.58;102113.38;20896125;28;20407;-78
2022/08/11 07:34:12;;;;;;;1.55;1.33;;;;;;;18.56;97.86;102060.50;20930356;28;20501;-78
2022/08/11 07:44:19;;;;;;;1.80;1.20;;;;;;;18.87;98.25;102103.25;20909323;28;20064;-82
2022/08/11 07:54:21;;;;;;;1.73;1.30;;;;;;;18.85;97.79;102108.75;20905532;28;20052;-80
2022/08/11 08:25:10;;;;;;;1.70;1.35;;;;;;;18.89;98.05;102104.84;20867744;28;20055;-79
2022/08/11 08:35:12;;;;;;;1.00;1.00;;;;;;;18.94;97.44;102096.41;20864683;28;20045;-78
2022/08/11 08:45:17;;;;;;;3.47;1.48;;;;;;;18.60;96.81;102026.94;20886985;28;20049;-82
2022/08/11 08:55:19;;;;;;;6.65;1.55;;;;;;;19.02;96.57;102095.88;20891612;28;20062;-82
2022/08/11 09:05:22;;;;;;;2.88;1.40;;;;;;;19.04;96.68;102097.47;20898836;28;20045;-82
2022/08/11 09:15:24;;;;;;;1.83;1.08;;;;;;;19.06;96.81;102089.28;20895046;28;20051;-79
2022/08/11 09:35:51;;;;;;;2.53;1.38;;;;;;;19.05;97.10;102080.31;20909109;28;20061;-81
2022/08/11 09:45:53;;;;;;;2.47;1.27;;;;;;;19.06;96.84;102079.31;20911790;28;20045;-81
2022/08/11 09:55:55;;;;;;;2.67;1.20;;;;;;;18.86;97.31;102045.72;20888445;28;20060;-82
2022/08/11 10:16:36;;;;;;;2.75;1.63;;;;;;;19.07;97.19;102069.41;20896523;28;20056;-81
2022/08/11 10:26:53;;;;;;;1.20;1.10;;;;;;;18.80;97.14;102019.19;20900241;28;20152;-80
2022/08/11 10:36:57;;;;;;;1.50;1.25;;;;;;;18.83;96.98;102022.53;20916076;28;20639;-81
2022/08/11 11:08:02;;;;;;;2.08;1.20;;;;;;;18.99;96.45;102014.16;20902632;28;20040;-80
2022/08/11 11:18:17;;;;;;;1.73;1.08;;;;;;;19.08;95.99;102017.16;20912323;28;20098;-80
2022/08/11 11:28:37;;;;;;;1.20;1.10;;;;;;;19.05;95.40;102012.81;20906873;28;20052;-80
2022/08/11 11:38:40;;;;;;;1.45;1.25;;;;;;;18.97;95.63;101989.13;20899964;28;20386;-80
2022/08/11 11:48:42;;;;;;;1.27;0.98;;;;;;;19.17;95.34;102008.34;20887955;28;20057;-81
2022/08/11 12:09:04;;;;;;;1.27;1.13;;;;;;;19.08;94.68;101955.91;20883306;28;20060;-82
2022/08/11 12:19:10;;;;;;;1.63;1.00;;;;;;;19.13;94.08;101951.00;20899683;28;20076;-82
2022/08/11 12:29:12;;;;;;;1.30;1.10;;;;;;;19.31;93.83;101968.59;20891915;28;20044;-84
2022/08/11 12:39:19;;;;;;;1.02;0.95;;;;;;;19.10;93.61;101928.81;20903600;28;20069;-84
2022/08/11 13:20:50;;;;;;;0.90;0.88;;;;;;;19.14;93.12;101916.81;20893664;28;20458;-81
2022/08/11 13:31:10;;;;;;;2.43;1.30;;;;;;;19.13;92.97;101904.28;20910911;28;20052;-81
2022/08/11 13:51:33;;;;;;;0.88;0.88;;;;;;;18.87;92.96;101873.91;20891562;28;20558;-81
2022/08/11 14:01:41;;;;;;;0.95;0.88;;;;;;;19.09;92.89;101900.97;20904065;28;20088;-80
2022/08/11 14:22:30;;;;;;;1.42;0.90;;;;;;;19.02;92.63;101883.53;20868634;28;20060;-79
2022/08/11 14:32:32;;;;;;;0.90;0.73;;;;;;;18.98;92.81;101877.50;20874335;28;20526;-81
2022/08/11 14:52:59;;;;;;;1.10;1.00;;;;;;;19.08;92.64;101871.41;20885469;28;20045;-80
2022/08/11 15:03:08;;;;;;;0.85;0.85;;;;;;;18.85;92.63;101836.25;20864065;28;20045;-80
2022/08/11 15:13:11;;;;;;;1.08;0.98;;;;;;;18.92;92.66;101847.41;20872003;28;21014;-80
2022/08/11 15:54:17;;;;;;;1.02;0.90;;;;;;;19.07;92.37;101821.09;20877326;28;20045;-78
2022/08/11 16:04:25;;;;;;;1.45;1.00;;;;;;;19.00;92.16;101809.94;20871151;28;20604;-79
2022/08/11 16:24:47;;;;;;;1.60;1.00;;;;;;;19.07;92.24;101794.97;20891521;28;20084;-81
2022/08/11 16:56:01;;;;;;;2.83;1.70;;;;;;;19.01;92.48;101786.50;20884054;28;20048;-79
2022/08/11 17:16:33;;;;;;;2.90;1.67;;;;;;;19.07;92.38;101786.88;20919176;28;20334;-78
2022/08/11 17:26:55;;;;;;;3.65;1.38;;;;;;;19.06;92.71;101777.06;20924465;28;20048;-79
2022/08/11 17:36:58;;;;;;;2.75;1.50;;;;;;;18.64;92.47;101712.88;20924649;28;20396;-78
